createdAt,value
2023-05-10T00:02:20.959Z,100266.52
2023-05-10T00:04:49.486Z,100262.80
2023-05-10T00:07:20.992Z,100261.61
2023-05-10T00:09:49.348Z,100260.15
2023-05-10T00:12:17.868Z,100259.17
2023-05-10T00:14:46.389Z,100255.55
2023-05-10T00:17:15.277Z,100255.20
2023-05-10T00:19:43.626Z,100253.63
2023-05-10T00:22:11.992Z,100256.42
2023-05-10T00:24:40.386Z,100253.82
2023-05-10T00:27:08.799Z,100253.11
2023-05-10T00:29:37.114Z,100252.86
2023-05-10T00:32:05.991Z,100251.50
2023-05-10T00:34:34.402Z,100250.66
2023-05-10T00:37:03.542Z,100250.13
2023-05-10T00:39:32.114Z,100253.47
2023-05-10T00:42:01.251Z,100253.16
2023-05-10T00:44:29.631Z,100250.16
2023-05-10T00:46:59.334Z,100243.89
2023-05-10T00:49:28.080Z,100241.66
2023-05-10T00:51:56.813Z,100246.97
2023-05-10T00:54:25.680Z,100240.66
2023-05-10T00:56:54.304Z,100241.59
2023-05-10T00:59:22.794Z,100243.41
2023-05-10T01:01:52.593Z,100243.44
2023-05-10T01:04:26.768Z,100244.19
2023-05-10T01:06:55.288Z,100239.02
2023-05-10T01:09:26.235Z,100236.86
2023-05-10T01:11:55.446Z,100234.12
2023-05-10T01:14:24.671Z,100237.14
2023-05-10T01:16:54.255Z,100235.99
2023-05-10T01:19:30.686Z,100233.47
2023-05-10T01:22:26.487Z,100234.10
2023-05-10T01:25:17.867Z,100228.45
2023-05-10T01:28:04.761Z,100224.25
2023-05-10T01:30:54.896Z,100225.78
2023-05-10T01:33:31.062Z,100225.52
2023-05-10T01:39:20.144Z,100224.87
2023-05-10T01:42:20.992Z,100228.67
2023-05-10T01:45:14.438Z,100231.07
2023-05-10T01:47:54.273Z,100231.71
2023-05-10T01:50:30.548Z,100231.31
2023-05-10T01:53:01.317Z,100227.86
2023-05-10T01:55:40.446Z,100230.71
2023-05-10T01:58:14.343Z,100227.94
2023-05-10T02:00:47.251Z,100224.95
2023-05-10T02:03:19.530Z,100228.36
2023-05-10T02:05:50.354Z,100222.99
2023-05-10T02:08:20.121Z,100225.87
2023-05-10T02:10:51.513Z,100224.09
2023-05-10T02:13:20.894Z,100221.09
2023-05-10T02:15:51.321Z,100218.37
2023-05-10T02:20:18.913Z,100216.33
2023-05-10T02:22:51.572Z,100216.02
2023-05-10T02:25:23.237Z,100213.52
2023-05-10T02:27:54.757Z,100213.20
2023-05-10T02:30:24.873Z,100209.30
2023-05-10T02:32:53.759Z,100206.88
2023-05-10T02:35:24.078Z,100208.27
2023-05-10T02:37:54.302Z,100209.06
2023-05-10T02:40:26.178Z,100210.15
2023-05-10T02:43:00.281Z,100211.06
2023-05-10T02:45:33.257Z,100207.62
2023-05-10T02:48:02.255Z,100208.23
2023-05-10T02:50:34.426Z,100206.96
2023-05-10T02:53:10.779Z,100203.42
2023-05-10T02:55:42.693Z,100206.65
2023-05-10T02:58:11.150Z,100209.65
2023-05-10T03:00:39.638Z,100212.67
2023-05-10T03:03:08.712Z,100209.63
2023-05-10T03:05:37.088Z,100209.02
2023-05-10T03:08:06.093Z,100209.42
2023-05-10T03:13:45.434Z,100210.14
2023-05-10T03:16:23.291Z,100209.83
2023-05-10T03:19:13.140Z,100213.68
2023-05-10T03:21:48.388Z,100210.68
2023-05-10T03:24:17.458Z,100218.65
2023-05-10T03:26:46.692Z,100214.69
2023-05-10T03:29:16.086Z,100212.77
2023-05-10T03:31:44.616Z,100217.05
2023-05-10T03:34:13.008Z,100211.90
2023-05-10T03:36:41.298Z,100213.48
2023-05-10T03:39:10.010Z,100213.64
2023-05-10T03:41:38.366Z,100209.43
2023-05-10T03:44:06.664Z,100209.31
2023-05-10T03:46:35.064Z,100210.27
2023-05-10T03:49:03.775Z,100210.84
2023-05-10T03:51:32.635Z,100212.68
2023-05-10T03:54:00.990Z,100210.73
2023-05-10T03:56:29.280Z,100208.41
2023-05-10T03:58:57.771Z,100213.22
2023-05-10T04:01:26.178Z,100211.21
2023-05-10T04:03:54.634Z,100208.85
2023-05-10T04:06:23.257Z,100209.41
2023-05-10T04:08:51.849Z,100208.94
2023-05-10T04:11:23.313Z,100207.10
2023-05-10T04:13:52.077Z,100210.45
2023-05-10T04:16:20.425Z,100211.84
2023-05-10T04:18:49.513Z,100211.83
2023-05-10T04:21:17.829Z,100205.87
2023-05-10T04:23:46.261Z,100205.59
2023-05-10T04:26:14.690Z,100205.02
2023-05-10T04:28:43.028Z,100208.05
2023-05-10T04:31:11.554Z,100205.76
2023-05-10T04:33:39.982Z,100207.98
2023-05-10T04:36:08.799Z,100204.09
2023-05-10T04:38:37.224Z,100200.89
2023-05-10T04:41:10.055Z,100201.52
2023-05-10T04:43:39.393Z,100202.90
2023-05-10T04:46:08.546Z,100202.20
2023-05-10T04:48:37.026Z,100203.52
2023-05-10T04:51:05.834Z,100207.25
2023-05-10T04:53:34.694Z,100206.80
2023-05-10T04:56:03.147Z,100208.78
2023-05-10T04:58:31.566Z,100209.16
2023-05-10T05:01:11.773Z,100210.86
2023-05-10T05:03:40.291Z,100208.45
2023-05-10T05:06:08.837Z,100209.90
2023-05-10T05:08:37.107Z,100208.61
2023-05-10T05:11:05.465Z,100206.80
2023-05-10T05:13:33.923Z,100206.77
2023-05-10T05:16:03.756Z,100206.36
2023-05-10T05:18:32.492Z,100206.28
2023-05-10T05:21:01.043Z,100197.31
2023-05-10T05:23:29.561Z,100198.92
2023-05-10T05:25:57.968Z,100200.16
2023-05-10T05:28:26.355Z,100195.77
2023-05-10T05:30:54.731Z,100195.58
2023-05-10T05:33:23.142Z,100194.45
2023-05-10T05:35:51.847Z,100195.78
2023-05-10T05:38:20.237Z,100199.88
2023-05-10T05:40:48.549Z,100196.45
2023-05-10T05:43:17.017Z,100192.96
2023-05-10T05:45:45.986Z,100194.89
2023-05-10T05:48:14.413Z,100199.61
2023-05-10T06:00:22.575Z,100191.48
2023-05-10T06:02:52.275Z,100195.23
2023-05-10T06:05:21.285Z,100192.73
2023-05-10T06:13:17.318Z,100195.45
2023-05-10T06:15:46.383Z,100198.91
2023-05-10T06:18:14.772Z,100197.15
2023-05-10T06:20:44.606Z,100198.14
2023-05-10T06:23:12.998Z,100200.60
2023-05-10T06:26:06.169Z,100197.38
2023-05-10T06:28:34.680Z,100197.86
2023-05-10T06:31:03.479Z,100196.93
2023-05-10T06:33:32.328Z,100198.70
2023-05-10T06:36:00.884Z,100194.02
2023-05-10T06:38:29.245Z,100196.25
2023-05-10T06:40:58.161Z,100195.86
2023-05-10T06:43:27.314Z,100190.17
2023-05-10T06:45:55.633Z,100189.05
2023-05-10T06:48:24.453Z,100190.77
2023-05-10T06:50:52.901Z,100193.80
2023-05-10T06:53:21.426Z,100194.67
2023-05-10T06:55:51.799Z,100191.62
2023-05-10T06:58:45.404Z,100192.83
2023-05-10T07:01:13.827Z,100192.39
2023-05-10T07:03:42.284Z,100187.19
2023-05-10T07:06:21.769Z,100190.31
2023-05-10T07:08:54.177Z,100188.60
2023-05-10T07:11:22.873Z,100184.94
2023-05-10T07:13:51.209Z,100182.75
2023-05-10T07:16:19.826Z,100181.17
2023-05-10T07:18:48.266Z,100180.12
2023-05-10T07:21:17.050Z,100175.02
2023-05-10T07:23:45.538Z,100171.66
2023-05-10T07:26:13.978Z,100172.39
2023-05-10T07:28:42.920Z,100171.45
2023-05-10T07:31:11.613Z,100172.04
2023-05-10T07:35:06.542Z,100169.67
2023-05-10T07:37:34.959Z,100162.73
2023-05-10T07:40:03.945Z,100161.48
2023-05-10T07:42:32.272Z,100157.22
2023-05-10T07:45:01.219Z,100158.33
2023-05-10T07:47:29.716Z,100157.70
2023-05-10T07:49:58.895Z,100155.77
2023-05-10T07:52:27.311Z,100152.21
2023-05-10T07:54:58.059Z,100150.80
2023-05-10T07:57:26.525Z,100149.33
2023-05-10T07:59:54.951Z,100149.56
2023-05-10T08:02:23.368Z,100145.84
2023-05-10T08:04:52.616Z,100147.70
2023-05-10T08:07:20.998Z,100148.54
2023-05-10T08:09:49.320Z,100148.73
2023-05-10T08:12:17.722Z,100148.02
2023-05-10T08:14:46.528Z,100148.56
2023-05-10T08:17:14.917Z,100151.44
2023-05-10T08:19:43.277Z,100145.12
2023-05-10T08:22:11.886Z,100144.15
2023-05-10T08:24:40.285Z,100142.20
2023-05-10T08:27:09.640Z,100140.14
2023-05-10T08:29:49.567Z,100136.70
2023-05-10T08:32:19.043Z,100138.70
2023-05-10T08:34:47.471Z,100133.14
2023-05-10T08:37:15.825Z,100132.28
2023-05-10T08:39:44.172Z,100130.23
2023-05-10T08:42:13.603Z,100133.84
2023-05-10T08:44:43.421Z,100133.08
2023-05-10T08:47:12.708Z,100131.77
2023-05-10T08:49:42.749Z,100131.09
2023-05-10T08:52:14.164Z,100131.30
2023-05-10T08:54:42.859Z,100136.69
2023-05-10T08:57:12.550Z,100130.41
2023-05-10T08:59:41.034Z,100127.96
2023-05-10T09:02:12.697Z,100125.74
2023-05-10T09:04:41.597Z,100122.73
2023-05-10T09:07:10.016Z,100123.19
2023-05-10T09:09:38.499Z,100127.01
2023-05-10T09:12:07.786Z,100130.78
2023-05-10T09:14:37.081Z,100127.38
2023-05-10T09:17:05.849Z,100129.27
2023-05-10T09:19:34.637Z,100131.63
2023-05-10T09:22:03.647Z,100128.99
2023-05-10T09:24:32.172Z,100128.09
2023-05-10T09:27:01.010Z,100132.77
2023-05-10T09:29:41.572Z,100128.55
2023-05-10T09:32:10.253Z,100132.41
2023-05-10T09:34:41.161Z,100132.21
2023-05-10T09:37:09.541Z,100126.33
2023-05-10T09:39:38.961Z,100131.48
2023-05-10T09:42:10.511Z,100132.61
2023-05-10T09:44:39.361Z,100136.05
2023-05-10T09:47:07.972Z,100133.46
2023-05-10T09:49:36.407Z,100132.88
2023-05-10T09:52:07.950Z,100128.30
2023-05-10T09:54:37.034Z,100123.91
2023-05-10T09:57:06.045Z,100126.61
2023-05-10T09:59:36.341Z,100125.86
2023-05-10T10:02:04.826Z,100119.60
2023-05-10T10:04:40.001Z,100114.41
2023-05-10T10:07:08.502Z,100110.95
2023-05-10T10:09:36.874Z,100111.96
2023-05-10T10:12:06.005Z,100110.86
2023-05-10T10:14:35.438Z,100107.27
2023-05-10T10:17:08.088Z,100105.31
2023-05-10T10:19:38.100Z,100102.71
2023-05-10T10:22:07.049Z,100100.08
2023-05-10T10:34:00.847Z,100099.92
2023-05-10T10:36:29.533Z,100098.34
2023-05-10T10:39:02.538Z,100098.69
2023-05-10T10:41:36.118Z,100098.17
2023-05-10T10:44:28.941Z,100094.29
2023-05-10T10:47:07.144Z,100090.86
2023-05-10T10:49:58.997Z,100090.73
2023-05-10T10:52:42.442Z,100087.70
2023-05-10T10:55:15.191Z,100085.36
2023-05-10T10:57:52.952Z,100086.60
2023-05-10T11:00:38.445Z,100084.48
2023-05-10T11:03:13.355Z,100092.73
2023-05-10T11:05:44.936Z,100089.58
2023-05-10T11:08:22.045Z,100088.09
2023-05-10T11:10:59.768Z,100093.07
2023-05-10T11:13:33.725Z,100089.56
2023-05-10T11:16:13.981Z,100085.34
2023-05-10T11:22:18.062Z,100091.06
2023-05-10T11:25:02.150Z,100086.95
2023-05-10T11:27:30.491Z,100076.30
2023-05-10T11:29:58.834Z,100080.10
2023-05-10T11:32:27.845Z,100081.60
2023-05-10T11:34:56.295Z,100079.89
2023-05-10T11:37:33.366Z,100079.41
2023-05-10T11:40:01.870Z,100077.40
2023-05-10T11:42:31.193Z,100063.70
2023-05-10T11:45:02.148Z,100076.94
2023-05-10T11:47:30.751Z,100073.23
2023-05-10T11:50:00.007Z,100075.32
2023-05-10T11:52:28.399Z,100078.81
2023-05-10T11:54:58.625Z,100074.61
2023-05-10T11:57:29.683Z,100072.18
2023-05-10T11:59:58.506Z,100074.93
2023-05-10T12:02:27.057Z,100079.23
2023-05-10T12:04:57.082Z,100078.11
2023-05-10T12:07:27.693Z,100072.96
2023-05-10T12:10:10.751Z,100076.73
2023-05-10T12:12:42.929Z,100073.10
2023-05-10T12:15:21.293Z,100075.88
2023-05-10T12:17:51.494Z,100073.22
2023-05-10T12:20:23.228Z,100070.55
2023-05-10T12:23:00.218Z,100066.25
2023-05-10T12:25:34.549Z,100074.90
2023-05-10T12:28:09.428Z,100071.11
2023-05-10T12:30:38.782Z,100070.79
2023-05-10T12:33:15.920Z,100069.44
2023-05-10T12:36:04.538Z,100071.90
2023-05-10T12:38:39.452Z,100072.14
2023-05-10T12:41:11.170Z,100071.02
2023-05-10T12:43:41.120Z,100072.48
2023-05-10T12:46:15.139Z,100075.51
2023-05-10T12:48:47.497Z,100080.27
2023-05-10T12:51:18.549Z,100073.55
2023-05-10T12:53:49.660Z,100070.27
2023-05-10T12:56:18.332Z,100068.62
2023-05-10T12:58:49.327Z,100072.26
2023-05-10T13:01:18.013Z,100064.63
2023-05-10T13:03:46.565Z,100067.90
2023-05-10T13:06:15.206Z,100063.26
2023-05-10T13:08:43.584Z,100062.11
2023-05-10T13:11:18.041Z,100064.07
2023-05-10T13:13:46.540Z,100069.62
2023-05-10T13:16:14.982Z,100069.79
2023-05-10T13:18:43.410Z,100069.05
2023-05-10T13:21:12.353Z,100064.65
2023-05-10T13:23:40.700Z,100061.10
2023-05-10T13:26:09.707Z,100057.96
2023-05-10T13:28:39.831Z,100045.89
2023-05-10T13:31:08.740Z,100043.86
2023-05-10T13:33:37.092Z,100043.86
2023-05-10T13:36:07.152Z,100040.70
2023-05-10T13:38:35.664Z,100045.44
2023-05-10T13:41:04.554Z,100046.77
2023-05-10T13:43:32.895Z,100042.43
2023-05-10T13:46:01.517Z,100044.83
2023-05-10T13:48:29.906Z,100044.41
2023-05-10T13:50:58.382Z,100041.31
2023-05-10T13:53:26.811Z,100038.27
2023-05-10T13:55:55.196Z,100030.38
2023-05-10T13:58:27.005Z,100027.89
2023-05-10T14:00:55.390Z,100029.27
2023-05-10T14:03:23.796Z,100032.69
2023-05-10T14:05:52.314Z,100029.89
2023-05-10T14:08:21.200Z,100029.08
2023-05-10T14:10:51.896Z,100027.30
2023-05-10T14:13:21.245Z,100023.35
2023-05-10T14:15:49.795Z,100027.62
2023-05-10T14:18:18.575Z,100028.60
2023-05-10T14:20:46.955Z,100024.63
2023-05-10T14:23:15.319Z,100025.72
2023-05-10T14:25:44.483Z,100019.95
2023-05-10T14:28:13.769Z,100021.64
2023-05-10T14:30:42.233Z,100016.91
2023-05-10T14:33:11.095Z,100017.77
2023-05-10T14:35:40.034Z,100019.09
2023-05-10T14:38:08.483Z,100015.77
2023-05-10T14:40:36.804Z,100014.89
2023-05-10T14:43:05.346Z,100017.75
2023-05-10T14:45:34.548Z,100015.82
2023-05-10T14:48:07.236Z,100016.61
2023-05-10T14:50:37.380Z,100010.50
2023-05-10T14:53:06.298Z,100013.89
2023-05-10T14:55:36.184Z,100018.64
2023-05-10T14:58:12.228Z,100019.77
2023-05-10T15:00:42.575Z,100021.36
2023-05-10T15:03:11.744Z,100016.64
2023-05-10T15:05:40.676Z,100018.05
2023-05-10T15:08:10.270Z,100016.59
2023-05-10T15:10:38.767Z,100014.86
2023-05-10T15:13:07.274Z,100013.19
2023-05-10T15:15:35.685Z,100017.84
2023-05-10T15:18:04.456Z,100016.39
2023-05-10T15:20:33.176Z,100019.61
2023-05-10T15:23:02.195Z,100020.94
2023-05-10T15:25:30.589Z,100016.11
2023-05-10T15:27:58.948Z,100015.54
2023-05-10T15:30:27.787Z,100017.14
2023-05-10T15:32:56.989Z,100019.20
2023-05-10T15:35:27.245Z,100019.30
2023-05-10T15:37:55.865Z,100016.05
2023-05-10T15:40:24.324Z,100017.46
2023-05-10T15:42:52.702Z,100015.79
2023-05-10T15:45:21.005Z,100016.01
2023-05-10T15:47:49.384Z,100015.81
2023-05-10T15:50:17.928Z,100011.52
2023-05-10T15:52:46.317Z,100014.59
2023-05-10T15:55:15.451Z,100014.89
2023-05-10T15:57:44.841Z,100015.43
2023-05-10T16:00:14.160Z,100014.73
2023-05-10T16:02:42.816Z,100014.59
2023-05-10T16:05:11.502Z,100016.98
2023-05-10T16:07:41.793Z,100017.94
2023-05-10T16:10:11.289Z,100016.83
2023-05-10T16:12:40.611Z,100017.92
2023-05-10T16:15:09.491Z,100017.17
2023-05-10T16:17:40.034Z,100017.68
2023-05-10T16:20:09.077Z,100018.89
2023-05-10T16:22:37.553Z,100021.12
2023-05-10T16:25:06.867Z,100025.42
2023-05-10T16:27:35.345Z,100025.39
2023-05-10T16:30:04.271Z,100022.90
2023-05-10T16:32:32.689Z,100023.51
2023-05-10T16:35:01.091Z,100024.52
2023-05-10T16:37:29.522Z,100021.20
2023-05-10T16:39:57.947Z,100025.23
2023-05-10T16:42:28.331Z,100031.39
2023-05-10T16:44:56.668Z,100027.55
2023-05-10T16:47:26.979Z,100026.09
2023-05-10T16:49:55.474Z,100027.68
2023-05-10T16:52:23.956Z,100029.98
2023-05-10T16:54:54.648Z,100033.40
2023-05-10T16:57:23.314Z,100032.98
2023-05-10T16:59:56.252Z,100035.19
2023-05-10T17:02:25.851Z,100040.15
2023-05-10T17:04:56.178Z,100043.61
2023-05-10T17:07:26.377Z,100044.04
2023-05-10T17:09:54.797Z,100045.30
2023-05-10T17:12:23.239Z,100048.64
2023-05-10T17:14:51.774Z,100047.21
2023-05-10T17:17:20.036Z,100047.82
2023-05-10T17:19:48.438Z,100052.84
2023-05-10T17:22:16.952Z,100058.83
2023-05-10T17:24:45.813Z,100057.29
2023-05-10T17:27:14.176Z,100058.48
2023-05-10T17:29:43.009Z,100057.15
2023-05-10T17:32:11.420Z,100057.20
2023-05-10T17:34:40.150Z,100059.17
2023-05-10T17:37:09.500Z,100064.73
2023-05-10T17:39:39.831Z,100062.70
2023-05-10T17:42:08.582Z,100065.61
2023-05-10T17:44:36.877Z,100065.84
2023-05-10T17:47:06.494Z,100066.48
2023-05-10T17:49:35.020Z,100066.73
2023-05-10T17:52:03.575Z,100065.77
2023-05-10T17:54:32.155Z,100068.17
2023-05-10T17:57:01.712Z,100069.41
2023-05-10T17:59:30.050Z,100072.03
2023-05-10T18:01:58.547Z,100074.51
2023-05-10T18:04:27.384Z,100077.73
2023-05-10T18:07:01.363Z,100074.83
2023-05-10T18:09:30.131Z,100075.99
2023-05-10T18:11:59.656Z,100083.42
2023-05-10T18:14:39.858Z,100083.70
2023-05-10T18:17:10.085Z,100085.84
2023-05-10T18:19:39.969Z,100085.31
2023-05-10T18:22:10.651Z,100089.00
2023-05-10T18:24:40.042Z,100089.26
2023-05-10T18:27:09.575Z,100092.60
2023-05-10T18:29:38.378Z,100092.76
2023-05-10T18:32:06.980Z,100099.36
2023-05-10T18:34:35.537Z,100102.72
2023-05-10T18:37:09.675Z,100100.83
2023-05-10T18:39:38.212Z,100105.21
2023-05-10T18:42:07.377Z,100103.20
2023-05-10T18:44:35.800Z,100109.85
2023-05-10T18:47:04.224Z,100111.04
2023-05-10T18:49:32.772Z,100115.46
2023-05-10T18:52:01.204Z,100113.04
2023-05-10T18:54:30.063Z,100120.21
2023-05-10T18:56:58.910Z,100122.57
2023-05-10T18:59:28.071Z,100121.70
2023-05-10T19:01:57.574Z,100123.36
2023-05-10T19:04:26.210Z,100124.27
2023-05-10T19:06:56.022Z,100125.00
2023-05-10T19:09:27.103Z,100129.08
2023-05-10T19:11:56.027Z,100132.24
2023-05-10T19:14:25.503Z,100139.77
2023-05-10T19:16:54.544Z,100139.41
2023-05-10T19:19:24.923Z,100142.70
2023-05-10T19:21:55.578Z,100142.94
2023-05-10T19:24:25.601Z,100145.16
2023-05-10T19:26:55.849Z,100145.64
2023-05-10T19:29:26.554Z,100147.42
2023-05-10T19:31:55.080Z,100147.90
2023-05-10T19:34:23.602Z,100148.40
2023-05-10T19:36:52.215Z,100146.85
2023-05-10T19:39:20.725Z,100150.34
2023-05-10T19:41:50.301Z,100150.84
2023-05-10T19:44:19.560Z,100150.58
2023-05-10T19:46:48.319Z,100151.28
2023-05-10T19:49:17.613Z,100153.01
2023-05-10T19:51:46.913Z,100163.31
2023-05-10T19:54:15.432Z,100165.69
2023-05-10T19:56:43.864Z,100170.23
2023-05-10T19:59:12.264Z,100172.59
2023-05-10T20:01:40.705Z,100172.00
2023-05-10T20:04:10.237Z,100176.27
2023-05-10T20:06:39.051Z,100177.19
2023-05-10T20:09:07.512Z,100175.85
2023-05-10T20:11:36.120Z,100178.31
2023-05-10T20:14:05.119Z,100176.84
2023-05-10T20:16:33.532Z,100179.89
2023-05-10T20:19:02.146Z,100181.27
2023-05-10T20:21:30.803Z,100179.45
2023-05-10T20:23:59.187Z,100183.69
2023-05-10T20:26:28.969Z,100182.67
2023-05-10T20:28:57.912Z,100183.93
2023-05-10T20:31:26.443Z,100183.80
2023-05-10T20:33:54.935Z,100186.30
2023-05-10T20:36:23.536Z,100187.30
2023-05-10T20:38:51.945Z,100187.13
2023-05-10T20:41:20.285Z,100186.39
2023-05-10T20:43:48.578Z,100184.02
2023-05-10T20:46:17.157Z,100186.49
2023-05-10T20:48:45.530Z,100186.78
2023-05-10T20:51:13.911Z,100182.31
2023-05-10T20:53:42.293Z,100181.81
2023-05-10T20:56:10.777Z,100186.24
2023-05-10T20:58:39.148Z,100183.26
2023-05-10T21:01:07.536Z,100183.06
2023-05-10T21:03:35.982Z,100181.04
2023-05-10T21:06:04.463Z,100183.45
2023-05-10T21:08:32.852Z,100180.03
2023-05-10T21:11:06.517Z,100182.98
2023-05-10T21:13:36.254Z,100183.70
2023-05-10T21:16:04.811Z,100183.05
2023-05-10T21:18:33.191Z,100185.64
2023-05-10T21:21:01.665Z,100185.79
2023-05-10T21:23:30.054Z,100189.80
2023-05-10T21:25:59.136Z,100191.22
2023-05-10T21:28:27.499Z,100191.08
2023-05-10T21:30:55.936Z,100192.24
2023-05-10T21:33:24.313Z,100193.52
2023-05-10T21:35:52.701Z,100194.79
2023-05-10T21:38:21.167Z,100197.10
2023-05-10T21:40:49.509Z,100200.55
2023-05-10T21:43:17.811Z,100204.64
2023-05-10T21:45:46.347Z,100202.89
2023-05-10T21:48:14.919Z,100201.05
2023-05-10T21:50:43.841Z,100202.94
2023-05-10T21:53:12.217Z,100205.18
2023-05-10T21:55:40.632Z,100202.60
2023-05-10T21:58:09.031Z,100205.11
2023-05-10T22:00:37.485Z,100207.55
2023-05-10T22:03:05.983Z,100207.55
2023-05-10T22:05:34.467Z,100205.81
2023-05-10T22:08:03.052Z,100205.27
2023-05-10T22:10:31.630Z,100209.50
2023-05-10T22:13:00.402Z,100208.89
2023-05-10T22:15:28.908Z,100209.79
2023-05-10T22:17:57.297Z,100210.18
2023-05-10T22:20:25.685Z,100209.41
2023-05-10T22:22:55.751Z,100208.42
2023-05-10T22:25:24.157Z,100206.29
2023-05-10T22:27:52.488Z,100205.45
2023-05-10T22:30:21.297Z,100210.75
2023-05-10T22:32:49.722Z,100209.65
2023-05-10T22:35:18.162Z,100207.80
2023-05-10T22:37:46.461Z,100209.39
2023-05-10T22:40:15.140Z,100210.00
2023-05-10T22:42:43.698Z,100211.78
2023-05-10T22:45:12.097Z,100211.48
2023-05-10T22:47:40.939Z,100209.92
2023-05-10T22:50:09.687Z,100213.54
2023-05-10T22:52:39.382Z,100216.34
2023-05-10T22:55:08.489Z,100222.80
2023-05-10T22:57:37.270Z,100219.27
2023-05-10T23:00:06.901Z,100227.19
2023-05-10T23:02:35.447Z,100222.82
2023-05-10T23:05:05.376Z,100229.52
2023-05-10T23:07:34.330Z,100230.02
2023-05-10T23:10:02.611Z,100231.92
2023-05-10T23:12:31.512Z,100233.14
2023-05-10T23:15:00.025Z,100231.07
2023-05-10T23:17:29.287Z,100230.77
2023-05-10T23:19:57.808Z,100230.58
2023-05-10T23:22:26.388Z,100231.94
2023-05-10T23:24:54.930Z,100234.25
2023-05-10T23:27:23.314Z,100235.27
2023-05-10T23:29:55.605Z,100233.95
2023-05-10T23:32:24.472Z,100232.95
2023-05-10T23:34:53.265Z,100232.69
2023-05-10T23:37:21.708Z,100235.84
2023-05-10T23:39:50.260Z,100237.08
2023-05-10T23:42:18.618Z,100236.86
2023-05-10T23:44:47.236Z,100239.17
2023-05-10T23:47:15.657Z,100239.48
2023-05-10T23:49:44.323Z,100242.52
2023-05-10T23:52:12.708Z,100242.62
2023-05-10T23:54:42.257Z,100245.15
2023-05-10T23:57:11.764Z,100243.91
2023-05-10T23:59:40.158Z,100248.34
